Time;durP1;ratioP1;P1;durP2;ratioP2;P2;SDS_P1;SDS_P2;PMS_P1;PMS_P2;Temp;Humidity;BMP_temperature;BMP_pressure;BME280_temperature;BME280_humidity;BME280_pressure;Samples;Min_cycle;Max_cycle;Signal;HPM_P1;HPM_P2
2022/10/15 00:00:30;;;;;;;21.17;3.97;;;17.00;99.90;;;16.39;100.00;100530.38;4153475;28;20101;-76
2022/10/15 00:02:31;;;;;;;13.52;2.88;;;17.00;99.90;;;16.36;100.00;100526.28;4154705;28;20026;-76
2022/10/15 00:04:33;;;;;;;16.70;2.50;;;17.10;99.90;;;16.38;100.00;100529.53;4154215;28;20033;-77
2022/10/15 00:06:34;;;;;;;13.23;3.38;;;17.10;99.90;;;16.39;100.00;100528.53;4154468;28;20052;-77
2022/10/15 00:08:36;;;;;;;14.45;2.63;;;17.00;99.90;;;16.30;100.00;100512.94;4153219;28;20116;-77
2022/10/15 00:10:37;;;;;;;19.85;2.72;;;17.00;99.90;;;16.35;100.00;100513.97;4153041;28;20433;-77
2022/10/15 00:12:39;;;;;;;14.48;3.20;;;17.00;99.90;;;16.36;100.00;100512.13;4169654;28;20496;-77
2022/10/15 00:14:40;;;;;;;16.83;2.47;;;17.10;99.90;;;16.37;100.00;100516.41;4169822;28;20105;-76
2022/10/15 00:16:41;;;;;;;11.48;2.10;;;17.10;99.90;;;16.43;100.00;100520.94;4152926;28;20037;-77
2022/10/15 00:18:43;;;;;;;13.88;1.90;;;17.00;99.90;;;16.41;100.00;100501.69;4169040;28;20108;-77
2022/10/15 00:20:43;;;;;;;19.88;3.60;;;17.00;99.90;;;16.38;100.00;100508.25;4152955;28;20022;-76
2022/10/15 00:22:44;;;;;;;10.50;2.60;;;17.00;99.90;;;16.34;100.00;100504.31;4169344;28;20426;-76
2022/10/15 00:24:45;;;;;;;10.63;2.38;;;17.10;99.90;;;16.35;100.00;100508.66;4139730;28;20045;-77
2022/10/15 00:26:46;;;;;;;10.43;1.70;;;17.10;99.90;;;16.30;100.00;100496.97;4154226;28;20044;-77
2022/10/15 00:28:50;;;;;;;15.40;2.08;;;17.10;99.90;;;16.37;100.00;100506.59;4154114;28;20034;-77
2022/10/15 00:30:58;;;;;;;12.05;2.30;;;17.10;99.90;;;16.41;100.00;100505.19;4152634;28;20045;-77
2022/10/15 00:32:59;;;;;;;11.35;1.95;;;17.10;99.90;;;16.44;100.00;100498.63;4141795;28;20022;-77
2022/10/15 00:34:59;;;;;;;17.15;2.88;;;17.10;99.90;;;16.38;100.00;100491.44;4136184;28;20510;-77
2022/10/15 00:37:00;;;;;;;11.85;2.17;;;17.10;99.90;;;16.40;100.00;100486.72;4157650;28;20420;-76
2022/10/15 00:39:04;;;;;;;6.43;1.80;;;17.10;99.90;;;16.41;100.00;100489.22;4169357;28;20057;-77
2022/10/15 00:41:07;;;;;;;12.27;1.60;;;17.10;99.90;;;16.43;100.00;100497.81;4152826;28;20089;-76
2022/10/15 00:43:10;;;;;;;10.52;2.05;;;17.10;99.90;;;16.34;100.00;100485.69;4153781;28;20034;-77
2022/10/15 00:45:14;;;;;;;9.35;1.75;;;17.00;99.90;;;16.37;100.00;100490.63;4152949;28;20049;-77
2022/10/15 00:47:27;;;;;;;12.40;2.38;;;17.10;99.90;;;16.38;100.00;100492.28;4152473;28;20041;-77
2022/10/15 00:49:45;;;;;;;8.68;1.95;;;17.10;99.90;;;16.28;100.00;100478.50;4153352;28;20042;-77
2022/10/15 00:51:56;;;;;;;9.05;1.42;;;17.00;99.90;;;16.38;100.00;100481.63;4153740;28;20556;-77
2022/10/15 00:53:57;;;;;;;4.82;1.20;;;17.00;99.90;;;16.38;100.00;100478.97;4136763;28;20030;-77
2022/10/15 00:56:00;;;;;;;10.30;1.73;;;17.00;99.90;;;16.37;100.00;100487.97;4152368;28;20034;-77
2022/10/15 00:58:08;;;;;;;7.07;1.67;;;17.00;99.90;;;16.30;100.00;100473.00;4136624;28;20585;-77
2022/10/15 01:00:14;;;;;;;6.45;1.08;;;17.00;99.90;;;16.34;100.00;100469.72;4152413;28;20158;-78
2022/10/15 01:02:18;;;;;;;5.72;1.80;;;17.00;99.90;;;16.38;100.00;100480.81;4153621;28;20030;-77
2022/10/15 01:04:20;;;;;;;8.82;1.63;;;17.00;99.90;;;16.39;100.00;100487.78;4153213;28;20036;-77
2022/10/15 01:06:22;;;;;;;9.32;1.80;;;17.00;99.90;;;16.40;100.00;100476.91;4152146;28;20141;-77
2022/10/15 01:08:23;;;;;;;11.32;2.08;;;17.00;99.90;;;16.33;100.00;100467.28;4153543;28;20033;-77
2022/10/15 01:10:36;;;;;;;11.05;1.42;;;17.00;99.90;;;16.29;100.00;100460.69;4152316;28;20026;-77
2022/10/15 01:12:37;;;;;;;9.95;1.70;;;17.00;99.90;;;16.37;100.00;100485.28;4168115;28;20029;-77
2022/10/15 01:14:58;;;;;;;14.65;1.88;;;17.00;99.90;;;16.31;100.00;100472.78;4153581;28;20060;-77
2022/10/15 01:17:10;;;;;;;11.50;1.50;;;17.00;99.90;;;16.37;100.00;100474.66;4136956;28;20041;-77
2022/10/15 01:19:59;;;;;;;9.35;2.03;;;17.00;99.90;;;16.34;100.00;100468.91;4153017;28;20087;-77
2022/10/15 01:22:40;;;;;;;6.80;1.40;;;17.00;99.90;;;16.33;100.00;100468.09;4151693;28;20088;-77
2022/10/15 01:25:22;;;;;;;7.53;1.40;;;17.00;99.90;;;16.33;100.00;100468.09;4161260;28;20032;-77
2022/10/15 01:27:36;;;;;;;12.30;2.20;;;17.00;99.90;;;16.28;100.00;100454.56;4142407;28;20049;-77
2022/10/15 01:30:11;;;;;;;7.63;2.10;;;17.00;99.90;;;16.32;100.00;100460.31;4151990;28;20116;-77
2022/10/15 01:32:25;;;;;;;6.43;1.55;;;17.00;99.90;;;16.29;100.00;100456.19;4153217;28;20076;-77
2022/10/15 01:35:17;;;;;;;11.40;1.92;;;17.00;99.90;;;16.22;100.00;100439.38;4151822;28;20076;-77
2022/10/15 01:37:40;;;;;;;10.65;1.50;;;16.90;99.90;;;16.22;100.00;100447.38;4152773;28;20037;-77
2022/10/15 01:40:07;;;;;;;14.50;2.10;;;16.90;99.90;;;16.12;100.00;100425.66;4151898;28;20014;-77
2022/10/15 01:42:52;;;;;;;10.65;2.15;;;16.90;99.90;;;16.22;100.00;100439.38;4168483;28;20462;-77
2022/10/15 01:45:01;;;;;;;10.48;1.83;;;16.80;99.90;;;16.18;100.00;100440.00;4131268;28;20052;-77
2022/10/15 01:47:13;;;;;;;8.65;2.08;;;16.80;99.90;;;16.24;100.00;100445.34;4168001;28;20045;-77
2022/10/15 01:49:20;;;;;;;11.15;1.83;;;16.80;99.90;;;16.05;100.00;100414.16;4168164;28;20063;-77
2022/10/15 01:51:23;;;;;;;8.10;1.80;;;16.80;99.90;;;16.10;100.00;100440.97;4167883;28;20095;-77
2022/10/15 01:53:26;;;;;;;9.40;2.28;;;16.80;99.90;;;16.15;100.00;100438.56;4168200;28;20036;-77
2022/10/15 01:55:30;;;;;;;7.07;1.52;;;16.80;99.90;;;16.13;100.00;100431.78;4167889;28;20029;-77
2022/10/15 01:57:32;;;;;;;7.65;1.35;;;16.80;99.90;;;16.18;100.00;100427.50;4167801;28;20113;-77
2022/10/15 01:59:34;;;;;;;6.93;1.42;;;16.80;99.90;;;16.08;100.00;100420.91;4152804;28;20022;-77
2022/10/15 02:01:35;;;;;;;9.77;2.15;;;16.80;99.90;;;16.07;100.00;100414.75;4167763;28;20436;-77
2022/10/15 02:03:48;;;;;;;11.27;1.85;;;16.80;99.90;;;16.13;100.00;100426.47;4151253;28;20033;-77
2022/10/15 02:06:12;;;;;;;13.77;2.40;;;16.80;99.90;;;16.10;100.00;100429.53;4167606;28;20033;-77
2022/10/15 02:08:44;;;;;;;18.10;2.60;;;16.70;99.90;;;16.07;100.00;100420.09;4168262;28;20029;-77
2022/10/15 02:11:11;;;;;;;16.20;2.75;;;16.70;99.90;;;16.03;100.00;100417.03;4165986;28;20069;-77
2022/10/15 02:13:36;;;;;;;12.18;2.80;;;16.70;99.90;;;16.10;100.00;100421.56;4167634;28;20056;-77
2022/10/15 02:15:48;;;;;;;18.33;2.67;;;16.70;99.90;;;16.03;100.00;100430.34;4160473;28;20064;-77
2022/10/15 02:18:30;;;;;;;15.95;2.78;;;16.70;99.90;;;15.93;100.00;100423.72;4167503;28;20120;-77
2022/10/15 02:20:52;;;;;;;15.63;3.30;;;16.70;99.90;;;15.92;100.00;100435.38;4150775;28;20041;-77
2022/10/15 02:23:14;;;;;;;16.73;3.10;;;16.60;99.90;;;15.82;100.00;100416.31;4167448;28;20041;-77
2022/10/15 02:25:23;;;;;;;17.52;3.25;;;16.60;99.90;;;15.76;100.00;100417.94;4166474;28;20127;-77
2022/10/15 02:27:27;;;;;;;18.35;3.08;;;16.50;99.90;;;15.67;100.00;100415.63;4141390;28;20034;-77
2022/10/15 02:29:33;;;;;;;18.30;2.58;;;16.50;99.90;;;15.87;100.00;100424.50;4151293;28;20060;-77
2022/10/15 02:31:36;;;;;;;13.73;2.95;;;16.50;99.90;;;15.70;100.00;100399.28;4150964;28;20041;-77
2022/10/15 02:33:38;;;;;;;22.20;3.58;;;16.40;99.90;;;15.65;100.00;100415.00;4150728;28;20029;-77
2022/10/15 02:35:42;;;;;;;16.67;3.30;;;16.40;99.90;;;15.65;100.00;100415.81;4151338;28;20508;-77
2022/10/15 02:37:48;;;;;;;14.48;2.10;;;16.30;99.90;;;15.60;100.00;100415.59;4167373;28;20022;-77
2022/10/15 02:39:50;;;;;;;15.13;2.38;;;16.30;99.90;;;15.50;100.00;100405.28;4152335;28;20485;-77
2022/10/15 02:41:52;;;;;;;22.55;3.40;;;16.30;99.90;;;15.58;100.00;100419.47;4152254;28;20030;-77
2022/10/15 02:43:53;;;;;;;14.60;2.90;;;16.30;99.90;;;15.59;100.00;100421.91;4150934;28;20476;-77
2022/10/15 02:45:54;;;;;;;12.27;2.90;;;16.20;99.90;;;15.54;100.00;100419.03;4152548;28;20029;-77
2022/10/15 02:47:55;;;;;;;12.95;2.83;;;16.20;99.90;;;15.45;100.00;100406.88;4153327;28;20211;-77
2022/10/15 02:49:56;;;;;;;7.47;2.10;;;16.20;99.90;;;15.45;100.00;100410.34;4154295;28;20026;-77
2022/10/15 02:51:58;;;;;;;9.15;2.20;;;16.20;99.90;;;15.47;100.00;100411.00;4170503;28;20037;-77
2022/10/15 02:54:00;;;;;;;10.13;2.15;;;16.20;99.90;;;15.38;100.00;100404.16;4170586;28;20029;-77
2022/10/15 02:56:01;;;;;;;11.32;1.67;;;16.20;99.90;;;15.40;100.00;100423.41;4140683;28;20023;-77
2022/10/15 02:58:02;;;;;;;14.10;1.92;;;16.10;99.90;;;15.36;100.00;100405.38;4138272;28;20029;-77
2022/10/15 03:00:04;;;;;;;8.75;2.33;;;16.10;99.90;;;15.23;100.00;100394.69;4161445;28;20026;-77
2022/10/15 03:02:05;;;;;;;10.75;2.03;;;16.00;99.90;;;15.25;100.00;100409.41;4170726;28;20508;-77
2022/10/15 03:04:05;;;;;;;12.60;2.65;;;16.00;99.90;;;15.24;100.00;100402.44;4155141;28;20034;-77
2022/10/15 03:06:07;;;;;;;12.57;2.78;;;16.00;99.90;;;15.22;100.00;100401.84;4155438;28;20063;-77
2022/10/15 03:08:08;;;;;;;13.32;2.97;;;16.00;99.90;;;15.22;100.00;100404.50;4170545;28;20052;-77
2022/10/15 03:10:08;;;;;;;9.15;3.55;;;15.90;99.90;;;15.20;100.00;100419.78;4145864;28;20030;-77
2022/10/15 03:12:09;;;;;;;16.52;4.93;;;15.90;99.90;;;15.09;100.00;100393.75;4151864;28;20026;-77
2022/10/15 03:14:11;;;;;;;13.82;4.50;;;15.90;99.90;;;15.06;100.00;100394.16;4154172;28;20022;-77
2022/10/15 03:16:12;;;;;;;18.35;4.78;;;15.90;99.90;;;15.15;100.00;100408.94;4170621;28;20022;-77
2022/10/15 03:18:13;;;;;;;14.32;4.35;;;15.90;99.90;;;15.24;100.00;100415.75;4154016;28;20096;-77
2022/10/15 03:20:13;;;;;;;13.57;4.55;;;15.90;99.90;;;15.11;100.00;100407.69;4155093;28;20026;-77
2022/10/15 03:22:14;;;;;;;10.38;4.15;;;15.90;99.90;;;15.14;100.00;100423.22;4137873;28;20030;-77
2022/10/15 03:24:15;;;;;;;11.35;3.30;;;15.80;99.90;;;15.13;100.00;100418.09;4170339;28;20025;-77
2022/10/15 03:26:16;;;;;;;13.60;4.18;;;15.80;99.90;;;15.12;100.00;100419.94;4137621;28;20061;-77
2022/10/15 03:28:17;;;;;;;10.50;3.17;;;15.80;99.90;;;14.88;100.00;100391.97;4170183;28;20544;-77
2022/10/15 03:30:19;;;;;;;13.68;3.78;;;15.80;99.90;;;14.99;100.00;100414.53;4154769;28;20053;-77
2022/10/15 03:32:20;;;;;;;14.07;4.43;;;15.70;99.90;;;15.04;100.00;100422.75;4137591;28;20037;-77
2022/10/15 03:34:20;;;;;;;13.00;4.30;;;15.80;99.90;;;15.09;100.00;100436.25;4153524;28;20057;-77
2022/10/15 03:36:21;;;;;;;13.77;4.68;;;15.80;99.90;;;15.01;100.00;100436.41;4154878;28;20057;-77
2022/10/15 03:38:22;;;;;;;8.13;3.20;;;15.80;99.90;;;15.09;100.00;100440.75;4153554;28;20448;-77
2022/10/15 03:40:23;;;;;;;6.47;2.83;;;15.80;99.90;;;15.00;100.00;100433.94;4170059;28;20025;-77
2022/10/15 03:42:24;;;;;;;6.28;2.35;;;15.70;99.90;;;14.97;100.00;100443.09;4153938;28;20026;-77
2022/10/15 03:44:25;;;;;;;3.22;1.88;;;15.70;99.90;;;14.88;100.00;100418.53;4154811;28;20022;-77
2022/10/15 03:46:26;;;;;;;3.67;1.63;;;15.60;99.90;;;14.91;100.00;100427.94;4153434;28;20038;-77
2022/10/15 03:48:28;;;;;;;4.43;1.33;;;15.70;99.90;;;14.84;100.00;100417.25;4137282;28;20517;-77
2022/10/15 03:50:29;;;;;;;10.75;1.65;;;15.60;99.90;;;14.83;100.00;100409.50;4155012;28;20037;-77
2022/10/15 03:52:30;;;;;;;6.82;1.60;;;15.60;99.90;;;14.87;100.00;100424.03;4154562;28;20041;-77
2022/10/15 03:54:30;;;;;;;5.40;2.08;;;15.60;99.90;;;14.79;100.00;100418.84;4137526;28;20081;-77
2022/10/15 03:56:31;;;;;;;5.55;2.30;;;15.50;99.90;;;14.83;100.00;100436.88;4169934;28;20028;-77
2022/10/15 03:58:32;;;;;;;6.15;1.90;;;15.60;99.90;;;14.76;100.00;100421.88;4136568;28;20104;-77
2022/10/15 04:00:33;;;;;;;7.07;2.10;;;15.60;99.90;;;14.72;100.00;100417.97;4153433;28;20022;-77
2022/10/15 04:02:34;;;;;;;7.85;2.03;;;15.60;99.90;;;14.83;100.00;100441.34;4169601;28;20463;-77
2022/10/15 04:04:35;;;;;;;6.45;1.85;;;15.50;99.90;;;14.81;100.00;100436.22;4153050;28;20041;-77
2022/10/15 04:06:36;;;;;;;6.60;2.10;;;15.60;99.90;;;14.70;100.00;100420.81;4170206;28;20022;-77
2022/10/15 04:08:37;;;;;;;4.15;2.10;;;15.60;99.90;;;14.88;100.00;100452.22;4154388;28;20450;-77
2022/10/15 04:10:37;;;;;;;9.13;1.90;;;15.60;99.90;;;14.83;100.00;100450.16;4152928;28;20021;-77
2022/10/15 04:12:38;;;;;;;7.85;2.65;;;15.60;99.90;;;14.77;100.00;100432.31;4154913;28;20033;-77
2022/10/15 04:14:39;;;;;;;5.05;1.98;;;15.60;99.90;;;14.88;100.00;100452.22;4153161;28;20029;-77
2022/10/15 04:16:40;;;;;;;8.40;2.47;;;15.60;99.90;;;14.85;100.00;100458.75;4154251;28;20044;-77
2022/10/15 04:18:41;;;;;;;5.13;2.30;;;15.60;99.90;;;14.72;100.00;100436.56;4152957;28;20014;-77
2022/10/15 04:20:42;;;;;;;6.25;2.58;;;15.60;99.90;;;14.75;100.00;100442.31;4154258;28;20026;-77
2022/10/15 04:22:43;;;;;;;6.65;2.65;;;15.60;99.90;;;14.86;100.00;100463.06;4154366;28;20481;-77
2022/10/15 04:24:44;;;;;;;6.95;2.35;;;15.60;99.90;;;14.75;100.00;100444.16;4153134;28;20028;-77
2022/10/15 04:26:45;;;;;;;4.18;1.95;;;15.60;99.90;;;14.72;100.00;100452.50;4152738;28;20026;-77
2022/10/15 04:28:47;;;;;;;4.10;1.52;;;15.60;99.90;;;14.74;100.00;100463.75;4169320;28;20547;-77
2022/10/15 04:30:48;;;;;;;2.92;1.30;;;15.50;99.90;;;14.75;100.00;100473.38;4153806;28;20121;-77
2022/10/15 04:32:52;;;;;;;4.30;1.25;;;15.50;99.90;;;14.59;100.00;100460.31;4152963;28;20047;-77
2022/10/15 04:34:53;;;;;;;3.17;0.50;;;15.40;99.90;;;14.70;100.00;100465.94;4152657;28;20500;-77
2022/10/15 04:36:54;;;;;;;2.63;0.80;;;15.40;99.90;;;14.55;100.00;100464.34;4152973;28;20034;-77
2022/10/15 04:38:55;;;;;;;3.75;1.17;;;15.30;99.90;;;14.47;100.00;100467.97;4162334;28;20022;-77
2022/10/15 04:41:05;;;;;;;3.83;1.10;;;15.30;99.90;;;14.27;100.00;100443.84;4153717;28;20032;-77
2022/10/15 04:43:06;;;;;;;3.90;1.10;;;15.20;99.90;;;14.30;100.00;100466.53;4153751;28;20402;-77
2022/10/15 04:45:08;;;;;;;2.33;1.00;;;15.20;99.90;;;14.45;100.00;100482.44;4152481;28;20049;-77
2022/10/15 04:47:08;;;;;;;3.38;1.00;;;15.20;99.90;;;14.40;100.00;100491.75;4169148;28;20428;-77
2022/10/15 04:49:09;;;;;;;2.30;0.90;;;15.10;99.90;;;14.36;100.00;100493.16;4152306;28;20029;-77
2022/10/15 04:51:17;;;;;;;1.98;0.80;;;15.10;99.90;;;14.32;100.00;100494.53;4151473;28;20048;-77
2022/10/15 04:53:19;;;;;;;2.22;1.00;;;15.10;99.90;;;14.26;100.00;100503.22;4152757;28;20112;-77
2022/10/15 04:55:20;;;;;;;3.15;0.93;;;15.10;99.90;;;14.21;100.00;100491.50;4153684;28;20026;-77
2022/10/15 04:57:21;;;;;;;6.20;1.65;;;15.10;99.90;;;14.30;100.00;100503.66;4152636;28;20030;-77
2022/10/15 04:59:22;;;;;;;2.83;1.48;;;15.00;99.90;;;14.33;100.00;100513.94;4153510;28;20022;-77
2022/10/15 05:01:23;;;;;;;4.40;1.20;;;15.00;99.90;;;14.27;100.00;100512.81;4153632;28;20041;-77
2022/10/15 05:03:23;;;;;;;1.92;1.10;;;15.00;99.90;;;14.29;100.00;100517.94;4152007;28;20033;-77
2022/10/15 05:05:24;;;;;;;2.72;1.45;;;15.00;99.90;;;14.19;100.00;100507.59;4152254;28;20569;-77
2022/10/15 05:07:25;;;;;;;2.92;1.20;;;15.00;99.90;;;14.21;100.00;100524.16;4153433;28;20033;-77
2022/10/15 05:09:26;;;;;;;2.30;0.93;;;15.00;99.90;;;14.17;100.00;100522.06;4153485;28;20034;-77
2022/10/15 05:11:28;;;;;;;1.45;0.90;;;14.90;99.90;;;14.22;100.00;100530.28;4134523;28;20116;-77
2022/10/15 05:13:30;;;;;;;2.75;0.95;;;14.90;99.90;;;14.27;100.00;100542.00;4152432;28;20059;-76
2022/10/15 05:15:31;;;;;;;3.95;1.08;;;15.00;99.90;;;14.23;100.00;100529.28;4153323;28;20018;-77
2022/10/15 05:17:32;;;;;;;2.67;0.80;;;15.00;99.90;;;14.20;100.00;100537.59;4152328;28;20026;-77
2022/10/15 05:19:33;;;;;;;1.67;0.82;;;15.00;99.90;;;14.23;100.00;100550.50;4151827;28;20042;-77
2022/10/15 05:21:35;;;;;;;3.17;1.00;;;15.00;99.90;;;14.24;100.00;100555.66;4152236;28;20528;-77
2022/10/15 05:23:37;;;;;;;1.58;0.98;;;15.00;99.90;;;14.25;100.00;100564.41;4135661;28;20046;-77
2022/10/15 05:25:38;;;;;;;3.88;1.27;;;15.00;99.90;;;14.26;100.00;100561.56;4168271;28;20040;-77
2022/10/15 05:27:39;;;;;;;2.95;1.15;;;15.00;99.90;;;14.26;100.00;100566.88;4152508;28;20043;-77
2022/10/15 05:29:40;;;;;;;3.45;1.42;;;15.00;99.90;;;14.29;100.00;100561.22;4151924;28;20417;-78
2022/10/15 05:31:41;;;;;;;3.00;1.73;;;15.00;99.90;;;14.28;100.00;100551.59;4152661;28;20083;-77
2022/10/15 05:33:42;;;;;;;2.78;1.48;;;15.00;99.90;;;14.32;100.00;100554.72;4152893;28;20080;-77
2022/10/15 05:35:43;;;;;;;4.28;1.70;;;15.00;99.90;;;14.21;100.00;100542.75;4153086;28;20087;-77
2022/10/15 05:37:44;;;;;;;3.55;1.85;;;15.00;99.90;;;14.26;100.00;100564.22;4135703;28;20014;-77
2022/10/15 05:39:45;;;;;;;5.22;1.95;;;15.00;99.90;;;14.19;100.00;100550.03;4167659;28;20030;-77
2022/10/15 05:41:45;;;;;;;8.07;1.95;;;15.00;99.90;;;14.29;100.00;100565.69;4145939;28;20032;-77
2022/10/15 05:43:49;;;;;;;4.05;2.13;;;15.00;99.90;;;14.24;100.00;100560.94;4144956;28;20032;-77
2022/10/15 05:45:54;;;;;;;4.80;2.15;;;15.00;99.90;;;14.29;100.00;100571.00;4150689;28;20021;-77
2022/10/15 05:47:55;;;;;;;3.78;2.08;;;15.00;99.90;;;14.26;100.00;100576.66;4152428;28;20034;-77
2022/10/15 05:49:56;;;;;;;3.88;1.60;;;15.00;99.90;;;14.14;100.00;100557.75;4151266;28;20037;-77
2022/10/15 05:51:57;;;;;;;2.78;1.42;;;15.00;99.90;;;14.18;100.00;100563.50;4167552;28;20508;-77
2022/10/15 05:53:58;;;;;;;3.10;1.55;;;15.00;99.90;;;14.00;100.00;100563.88;4167871;28;20026;-77
2022/10/15 05:55:59;;;;;;;4.00;2.17;;;14.90;99.90;;;14.08;100.00;100590.31;4154348;28;20033;-77
2022/10/15 05:58:02;;;;;;;1.75;1.30;;;14.90;99.90;;;14.04;100.00;100588.19;4151289;28;20026;-77
2022/10/15 06:00:05;;;;;;;2.50;0.82;;;14.90;99.90;;;14.06;100.00;100591.50;4152302;28;20034;-77
2022/10/15 06:02:08;;;;;;;2.63;1.00;;;14.80;99.90;;;14.08;100.00;100600.91;4148450;28;20017;-78
2022/10/15 06:04:10;;;;;;;2.90;0.80;;;14.80;99.90;;;14.02;100.00;100595.50;4150754;28;20038;-78
2022/10/15 06:06:25;;;;;;;2.30;1.00;;;14.80;99.90;;;13.97;100.00;100593.41;4135030;28;20281;-77
2022/10/15 06:08:28;;;;;;;2.83;0.60;;;14.70;99.90;;;13.89;100.00;100598.78;4151510;28;20026;-77
2022/10/15 06:10:29;;;;;;;3.88;0.70;;;14.70;99.90;;;13.75;100.00;100605.72;4152535;28;20114;-77
2022/10/15 06:12:30;;;;;;;2.72;0.60;;;14.60;99.90;;;13.63;100.00;100599.19;4152730;28;20030;-78
2022/10/15 06:14:31;;;;;;;2.45;1.08;;;14.40;99.90;;;13.56;100.00;100600.09;4154274;28;20030;-77
2022/10/15 06:16:32;;;;;;;4.20;1.08;;;14.40;99.90;;;13.48;100.00;100586.91;4167873;28;20417;-77
2022/10/15 06:18:34;;;;;;;3.35;1.38;;;14.30;99.90;;;13.52;100.00;100593.50;4151358;28;20022;-77
2022/10/15 06:20:36;;;;;;;1.90;1.33;;;14.20;99.90;;;13.47;100.00;100595.88;4138169;28;20028;-77
2022/10/15 06:22:37;;;;;;;3.25;1.27;;;14.20;99.90;;;13.32;100.00;100577.25;4167437;28;20055;-77
2022/10/15 06:24:38;;;;;;;2.53;0.93;;;14.20;99.90;;;13.38;100.00;100603.03;4151244;28;20065;-77
2022/10/15 06:26:39;;;;;;;5.07;1.02;;;14.20;99.90;;;13.32;100.00;100604.56;4152426;28;20034;-77
2022/10/15 06:28:40;;;;;;;4.60;0.95;;;14.10;99.90;;;13.26;100.00;100604.47;4152390;28;20076;-77
2022/10/15 06:30:42;;;;;;;5.25;0.90;;;14.10;99.90;;;13.24;100.00;100612.59;4150701;28;20046;-77
2022/10/15 06:32:51;;;;;;;2.00;0.77;;;14.00;99.90;;;13.27;100.00;100619.34;4135240;28;20054;-77
2022/10/15 06:34:52;;;;;;;1.10;0.70;;;14.00;99.90;;;13.21;100.00;100622.69;4150336;28;20511;-77
2022/10/15 06:36:53;;;;;;;1.48;0.70;;;13.90;99.90;;;13.09;100.00;100614.34;4158206;28;20014;-77
2022/10/15 06:38:54;;;;;;;1.42;0.70;;;13.90;99.90;;;13.21;100.00;100651.84;4150796;28;20034;-77
2022/10/15 06:40:55;;;;;;;3.88;1.20;;;13.90;99.90;;;13.05;100.00;100636.03;4152268;28;20052;-77
2022/10/15 06:43:09;;;;;;;2.92;0.70;;;13.90;99.90;;;13.11;100.00;100662.66;4151044;28;20025;-78
2022/10/15 06:45:10;;;;;;;3.38;0.90;;;13.90;99.90;;;13.05;100.00;100647.41;4167387;28;20057;-78
2022/10/15 06:47:11;;;;;;;5.50;0.80;;;13.80;99.90;;;13.10;100.00;100673.44;4151064;28;20018;-77
2022/10/15 06:49:12;;;;;;;3.45;0.65;;;13.80;99.90;;;13.10;100.00;100678.72;4151916;28;20378;-77
2022/10/15 06:51:13;;;;;;;5.05;1.05;;;13.80;99.90;;;13.06;100.00;100661.50;4150320;28;20161;-77
2022/10/15 06:53:15;;;;;;;3.75;0.65;;;13.80;99.90;;;13.07;100.00;100674.56;4150936;28;20025;-77
2022/10/15 06:55:16;;;;;;;1.42;0.60;;;13.80;99.90;;;12.96;100.00;100664.34;4167129;28;20032;-78
2022/10/15 06:57:17;;;;;;;1.70;0.50;;;13.80;99.90;;;12.93;100.00;100659.41;4151122;28;20104;-78
2022/10/15 06:59:18;;;;;;;1.58;0.73;;;13.80;99.90;;;12.98;100.00;100674.78;4152172;28;20447;-77
2022/10/15 07:01:19;;;;;;;2.03;0.90;;;13.70;99.90;;;12.95;100.00;100670.66;4151015;28;20092;-77
2022/10/15 07:03:19;;;;;;;1.83;0.95;;;13.80;99.90;;;12.98;100.00;100672.97;4167065;28;20099;-77
2022/10/15 07:05:21;;;;;;;2.15;1.52;;;13.80;99.90;;;12.93;100.00;100677.13;4150926;28;20037;-78
2022/10/15 07:07:22;;;;;;;3.88;1.27;;;13.80;99.90;;;13.03;100.00;100694.44;4150875;28;20032;-77
2022/10/15 07:09:23;;;;;;;2.63;1.33;;;13.80;99.90;;;12.94;100.00;100692.00;4151181;28;20026;-78
2022/10/15 07:11:23;;;;;;;4.95;1.55;;;13.80;99.90;;;12.93;100.00;100683.22;4150806;28;20109;-78
2022/10/15 07:13:24;;;;;;;10.05;1.58;;;13.80;99.90;;;13.07;100.00;100697.56;4167118;28;20390;-79
2022/10/15 07:15:26;;;;;;;4.18;1.50;;;13.80;99.90;;;13.08;100.00;100700.06;4151941;28;20037;-78
2022/10/15 07:17:29;;;;;;;2.65;1.35;;;13.80;99.90;;;13.07;100.00;100689.63;4150844;28;20587;-78
2022/10/15 07:19:30;;;;;;;4.43;1.13;;;13.80;99.90;;;12.99;100.00;100671.16;4151782;28;20030;-78
2022/10/15 07:21:31;;;;;;;2.53;1.20;;;13.80;99.90;;;13.14;100.00;100690.63;4151942;28;20041;-78
2022/10/15 07:23:32;;;;;;;3.05;0.93;;;13.80;99.90;;;13.16;100.00;100680.69;4167245;28;20021;-78
2022/10/15 07:25:33;;;;;;;1.75;0.73;;;13.90;99.90;;;13.20;100.00;100674.84;4150646;28;20057;-79
2022/10/15 07:27:34;;;;;;;2.25;0.70;;;14.00;99.90;;;13.18;100.00;100657.47;4134549;28;20023;-78
2022/10/15 07:29:35;;;;;;;1.35;0.50;;;14.00;99.90;;;13.32;100.00;100674.47;4152045;28;20041;-78
2022/10/15 07:31:36;;;;;;;1.20;0.70;;;14.00;99.90;;;13.30;100.00;100671.97;4151666;28;20410;-78
2022/10/15 07:33:37;;;;;;;0.95;0.57;;;14.10;99.90;;;13.32;100.00;100666.53;4151631;28;20026;-78
2022/10/15 07:35:38;;;;;;;5.70;1.13;;;14.10;99.90;;;13.44;100.00;100681.81;4153769;28;20033;-78
2022/10/15 07:37:39;;;;;;;1.70;0.73;;;14.10;99.90;;;13.48;100.00;100677.00;4154865;28;20494;-78
2022/10/15 07:39:40;;;;;;;1.77;0.70;;;14.20;99.90;;;13.42;100.00;100678.53;4154774;28;20026;-78
2022/10/15 07:41:41;;;;;;;3.22;0.80;;;14.20;99.90;;;13.40;100.00;100666.47;4154847;28;20399;-78
2022/10/15 07:43:43;;;;;;;3.15;1.00;;;14.20;99.90;;;13.53;100.00;100686.06;4154798;28;20037;-78
2022/10/15 07:45:48;;;;;;;1.95;0.90;;;14.20;99.90;;;13.56;100.00;100695.50;4154690;28;20026;-78
2022/10/15 07:47:49;;;;;;;3.45;0.77;;;14.30;99.90;;;13.62;100.00;100700.09;4137362;28;20489;-78
2022/10/15 07:49:50;;;;;;;1.58;1.10;;;14.30;99.90;;;13.52;100.00;100678.31;4153447;28;20037;-78
2022/10/15 07:51:51;;;;;;;3.10;1.15;;;14.40;99.90;;;13.74;100.00;100715.41;4170016;28;20029;-78
2022/10/15 07:53:52;;;;;;;2.22;0.95;;;14.40;99.90;;;13.68;100.00;100699.38;4154596;28;20017;-78
2022/10/15 07:55:56;;;;;;;2.13;1.00;;;14.50;99.90;;;13.72;100.00;100692.72;4153460;28;20021;-78
2022/10/15 07:57:58;;;;;;;1.23;0.73;;;14.60;99.90;;;13.94;100.00;100712.28;4153508;28;20129;-78
2022/10/15 07:59:59;;;;;;;4.03;1.00;;;14.60;99.90;;;13.91;100.00;100697.56;4154737;28;20029;-77
2022/10/15 08:02:00;;;;;;;2.55;1.10;;;14.70;99.90;;;13.91;100.00;100686.94;4154514;28;20099;-78
2022/10/15 08:04:01;;;;;;;1.73;0.90;;;14.80;99.90;;;13.96;100.00;100692.53;4154183;28;20374;-77
2022/10/15 08:06:05;;;;;;;5.72;2.17;;;14.80;99.90;;;13.92;100.00;100683.28;4154460;28;20049;-78
2022/10/15 08:08:06;;;;;;;3.25;0.80;;;14.80;99.90;;;13.97;100.00;100699.50;4146245;28;20058;-77
2022/10/15 08:10:08;;;;;;;2.60;0.68;;;14.70;99.90;;;13.89;100.00;100685.47;4148325;28;20045;-77
2022/10/15 08:12:09;;;;;;;2.83;0.63;;;14.70;99.90;;;13.85;100.00;100671.75;4152999;28;20034;-77
2022/10/15 08:14:10;;;;;;;0.98;0.63;;;14.70;99.90;;;13.95;100.00;100680.25;4154367;28;20073;-77
2022/10/15 08:16:14;;;;;;;2.33;1.00;;;14.70;99.90;;;13.97;100.00;100672.13;4153196;28;20516;-77
2022/10/15 08:18:15;;;;;;;4.72;0.85;;;14.70;99.90;;;13.99;100.00;100670.13;4152663;28;20030;-76
2022/10/15 08:20:16;;;;;;;0.88;0.60;;;14.80;99.90;;;14.12;100.00;100673.81;4154053;28;20505;-76
2022/10/15 08:22:16;;;;;;;1.20;0.75;;;14.90;99.90;;;14.20;100.00;100663.13;4154527;28;20026;-76
2022/10/15 08:24:17;;;;;;;1.38;0.68;;;15.00;99.90;;;14.35;100.00;100669.31;4153061;28;20444;-77
2022/10/15 08:26:18;;;;;;;2.30;0.75;;;15.10;99.90;;;14.59;100.00;100678.81;4152707;28;20476;-78
2022/10/15 08:28:19;;;;;;;2.25;0.90;;;15.20;99.90;;;14.65;100.00;100661.34;4154018;28;20060;-78
2022/10/15 08:30:20;;;;;;;1.73;0.73;;;15.40;99.90;;;14.79;100.00;100657.84;4153622;28;20050;-77